Hauptseite
METAR-TAF:

METAR-TAF

Flughäfen :

Flughafen Sumburgh

Sumburgh, Shetlandinseln, Schottland

Breite: 59-53N, Länge: 001-18W, Höhe: 5 m

Beobachtung

Neuester Wetterbericht von vor 27 Minuten, um 04:50 UTC
Wind 7 kt aus Nord
Temperatur 7°C
Luftfeuchtigkeit 81%
Luftdruck 1005 hPa
Sichtweite 10 km oder mehr

METAR: EGPB 040450Z AUTO 35007KT 9999 NCD 07/04 Q1005

Zeit: 06:17 (05:17 UTC)

Prognose

Neuester Wetterbericht von vor 3 Stunden und 14 Minuten, um 02:03 UTC
Gültige Prognose vom 04 um 03 UTC bis 04 um 12 UTC
Wind 10 kt aus Nord/Nordwest
Sichtweite 10 km oder mehr
Leicht bewölkt in der Höhe von 3000 ft
Wahrscheinlichkeit 40% :
Zeitweise
vom 04 um 03 UTC bis 04 um 12 UTC
Sichtweite: 8000 m
Regenschauer

TAF: EGPB 040203Z 0403/0412 34010KT 9999 FEW030 PROB40 TEMPO 0403/0412 8000 SHRA

Wetterbeobachtungen und Prognosen von mehr als 4000 Flughäfen (METAR und TAF Bericht).

Die verfügbaren Stationen werden durch gelbe und rote Markierungen auf der Karte dargestellt.

Führen Sie die Maus auf sie, um den Namen der Station zu sehen.

Darauf klicken, um die Beobachtung von Wetterbeobachtungen und Prognosen zu sehen.

Um die Karte zu ändern : klicken Sie auf den grünen Tasten mit einem schwarzen Kreuz Zum Vergrößern, auf den grünen Button mit einem Gedankenstrich zu verkleinern, oder auf die grünen Pfeile für benachbarte Karten.


METAR-TAF: